createdAt,value
2018-01-21T00:00:51.704Z,4.7
2018-01-21T00:01:54.121Z,4.6
2018-01-21T00:02:56.525Z,4.7
2018-01-21T00:03:58.933Z,4.6
2018-01-21T00:05:01.334Z,4.6
2018-01-21T00:06:03.746Z,4.6
2018-01-21T00:07:06.150Z,4.6
2018-01-21T00:08:08.559Z,4.6
2018-01-21T00:09:11.539Z,4.7
2018-01-21T00:10:13.949Z,4.6
2018-01-21T00:11:16.369Z,4.6
2018-01-21T00:12:18.778Z,4.6
2018-01-21T00:13:21.185Z,4.6
2018-01-21T00:14:23.602Z,4.6
2018-01-21T00:15:26.004Z,4.6
2018-01-21T00:16:28.407Z,4.6
2018-01-21T00:17:30.819Z,4.7
2018-01-21T00:18:33.234Z,4.7
2018-01-21T00:19:35.640Z,4.6
2018-01-21T00:20:38.056Z,4.6
2018-01-21T00:21:40.451Z,4.6
2018-01-21T00:22:43.150Z,4.6
2018-01-21T00:23:45.561Z,4.6
2018-01-21T00:24:47.964Z,4.6
2018-01-21T00:25:50.376Z,4.5
2018-01-21T00:26:52.784Z,4.7
2018-01-21T00:27:55.250Z,4.7
2018-01-21T00:28:57.613Z,4.7
2018-01-21T00:30:00.043Z,4.6
2018-01-21T00:31:02.751Z,4.6
2018-01-21T00:32:05.154Z,4.6
2018-01-21T00:33:07.553Z,4.6
2018-01-21T00:34:09.967Z,4.6
2018-01-21T00:35:12.371Z,4.6
2018-01-21T00:36:14.784Z,4.7
2018-01-21T00:37:17.189Z,4.6
2018-01-21T00:38:19.590Z,4.6
2018-01-21T00:39:22.005Z,4.7
2018-01-21T00:40:24.717Z,4.6
2018-01-21T00:41:27.119Z,4.6
2018-01-21T00:42:29.520Z,4.6
2018-01-21T00:43:31.932Z,4.6
2018-01-21T00:44:34.345Z,4.6
2018-01-21T00:45:36.765Z,4.7
2018-01-21T00:46:39.183Z,4.7
2018-01-21T00:47:41.580Z,4.6
2018-01-21T00:48:43.998Z,4.7
2018-01-21T00:49:46.403Z,4.6
2018-01-21T00:50:48.803Z,4.5
2018-01-21T00:51:51.202Z,4.6
2018-01-21T00:52:53.607Z,4.6
2018-01-21T00:53:56.016Z,4.6
2018-01-21T00:54:58.436Z,4.6
2018-01-21T00:56:01.128Z,4.7
2018-01-21T00:57:03.532Z,4.7
2018-01-21T00:58:05.942Z,4.6
2018-01-21T00:59:08.346Z,4.6
2018-01-21T01:00:10.754Z,4.6
2018-01-21T01:01:13.454Z,4.5
2018-01-21T01:02:15.862Z,4.6
2018-01-21T01:03:18.273Z,4.6
2018-01-21T01:04:20.673Z,4.7
2018-01-21T01:05:23.100Z,4.8
2018-01-21T01:06:25.508Z,4.7
2018-01-21T01:07:27.924Z,4.7
2018-01-21T01:08:30.621Z,4.6
2018-01-21T01:09:33.303Z,4.6
2018-01-21T01:10:35.705Z,4.6
2018-01-21T01:11:38.120Z,4.6
2018-01-21T01:12:40.519Z,4.5
2018-01-21T01:13:42.935Z,4.7
2018-01-21T01:14:45.353Z,4.6
2018-01-21T01:15:47.752Z,4.6
2018-01-21T01:16:50.158Z,4.7
2018-01-21T01:17:52.574Z,4.6
2018-01-21T01:18:54.973Z,4.7
2018-01-21T01:19:57.387Z,4.6
2018-01-21T01:21:00.349Z,4.6
2018-01-21T01:22:02.762Z,4.6
2018-01-21T01:23:05.173Z,4.8
2018-01-21T01:24:07.874Z,4.7
2018-01-21T01:25:10.277Z,4.7
2018-01-21T01:26:12.690Z,4.7
2018-01-21T01:27:15.096Z,4.7
2018-01-21T01:28:17.794Z,4.6
2018-01-21T01:29:20.198Z,4.7
2018-01-21T01:30:22.603Z,4.6
2018-01-21T01:31:25.018Z,4.6
2018-01-21T01:32:27.434Z,4.6
2018-01-21T01:33:29.845Z,4.7
2018-01-21T01:34:32.254Z,4.7
2018-01-21T01:35:34.665Z,4.7
2018-01-21T01:36:37.070Z,4.7
2018-01-21T01:37:39.788Z,4.6
2018-01-21T01:38:42.230Z,4.7
2018-01-21T01:39:44.590Z,4.6
2018-01-21T01:40:47.002Z,4.6
2018-01-21T01:41:49.405Z,4.6
2018-01-21T01:42:52.161Z,4.6
2018-01-21T01:43:54.573Z,4.7
2018-01-21T01:44:56.967Z,4.7
2018-01-21T01:45:59.373Z,4.7
2018-01-21T01:47:01.787Z,4.6
2018-01-21T01:48:04.190Z,4.5
2018-01-21T01:49:06.604Z,4.6
2018-01-21T01:50:09.015Z,4.6
2018-01-21T01:51:11.419Z,4.6
2018-01-21T01:52:13.838Z,4.6
2018-01-21T01:53:16.255Z,4.7
2018-01-21T01:54:18.657Z,4.7
2018-01-21T01:55:21.073Z,4.6
2018-01-21T01:56:23.478Z,4.6
2018-01-21T01:57:25.880Z,4.6
2018-01-21T01:58:28.284Z,4.5
2018-01-21T01:59:30.693Z,4.7
2018-01-21T02:00:33.153Z,4.7
2018-01-21T02:01:35.517Z,4.8
2018-01-21T02:02:37.935Z,4.6
2018-01-21T02:03:40.346Z,4.6
2018-01-21T02:04:42.745Z,4.5
2018-01-21T02:05:45.445Z,4.6
2018-01-21T02:06:47.852Z,4.6
2018-01-21T02:07:50.254Z,4.7
2018-01-21T02:08:52.662Z,4.6
2018-01-21T02:09:55.069Z,4.7
2018-01-21T02:10:57.464Z,4.6
2018-01-21T02:11:59.874Z,4.7
2018-01-21T02:13:02.275Z,4.7
2018-01-21T02:14:04.673Z,4.6
2018-01-21T02:15:07.639Z,4.7
2018-01-21T02:16:10.044Z,4.5
2018-01-21T02:17:12.433Z,4.6
2018-01-21T02:18:14.852Z,4.6
2018-01-21T02:19:17.239Z,4.6
2018-01-21T02:20:19.647Z,4.6
2018-01-21T02:21:22.054Z,4.6
2018-01-21T02:22:24.451Z,4.6
2018-01-21T02:23:26.846Z,4.6
2018-01-21T02:24:29.244Z,4.6
2018-01-21T02:25:31.636Z,4.7
2018-01-21T02:26:34.035Z,4.5
2018-01-21T02:27:36.726Z,4.6
2018-01-21T02:28:39.125Z,4.7
2018-01-21T02:29:41.809Z,4.7
2018-01-21T02:30:44.509Z,4.7
2018-01-21T02:31:46.916Z,4.6
2018-01-21T02:32:49.312Z,4.7
2018-01-21T02:33:51.709Z,4.7
2018-01-21T02:34:54.104Z,4.6
2018-01-21T02:35:56.873Z,4.7
2018-01-21T02:36:59.237Z,4.7
2018-01-21T02:38:01.645Z,4.6
2018-01-21T02:39:04.048Z,4.6
2018-01-21T02:40:06.454Z,4.8
2018-01-21T02:41:08.861Z,4.7
2018-01-21T02:42:11.278Z,4.8
2018-01-21T02:43:13.966Z,4.7
2018-01-21T02:44:16.377Z,4.6
2018-01-21T02:45:19.093Z,4.7
2018-01-21T02:46:21.501Z,4.6
2018-01-21T02:47:23.912Z,4.6
2018-01-21T02:48:26.319Z,4.6
2018-01-21T02:49:28.727Z,4.7
2018-01-21T02:50:31.153Z,4.7
2018-01-21T02:51:33.550Z,4.6
2018-01-21T02:52:35.956Z,4.7
2018-01-21T02:53:38.357Z,4.6
2018-01-21T02:54:40.760Z,4.6
2018-01-21T02:55:43.176Z,4.7
2018-01-21T02:56:45.588Z,4.6
2018-01-21T02:57:48.285Z,4.7
2018-01-21T02:58:50.992Z,4.7
2018-01-21T02:59:53.416Z,4.6
2018-01-21T03:00:55.816Z,4.7
2018-01-21T03:01:58.220Z,4.6
2018-01-21T03:03:01.207Z,4.7
2018-01-21T03:04:03.609Z,4.6
2018-01-21T03:05:06.015Z,4.6
2018-01-21T03:06:08.428Z,4.7
2018-01-21T03:07:10.828Z,4.6
2018-01-21T03:08:13.241Z,4.8
2018-01-21T03:09:15.664Z,4.7
2018-01-21T03:10:18.332Z,4.8
2018-01-21T03:11:21.029Z,4.7
2018-01-21T03:12:23.443Z,4.6
2018-01-21T03:13:25.854Z,4.7
2018-01-21T03:14:28.272Z,4.6
2018-01-21T03:15:30.671Z,4.7
2018-01-21T03:16:33.087Z,4.6
2018-01-21T03:17:35.505Z,4.7
2018-01-21T03:18:37.906Z,4.8
2018-01-21T03:19:40.315Z,4.7
2018-01-21T03:20:42.712Z,4.7
2018-01-21T03:21:45.119Z,4.6
2018-01-21T03:22:47.533Z,4.7
2018-01-21T03:23:50.218Z,4.6
2018-01-21T03:24:52.619Z,4.6
2018-01-21T03:25:55.036Z,4.6
2018-01-21T03:26:57.452Z,4.6
2018-01-21T03:27:59.867Z,4.8
2018-01-21T03:29:02.550Z,4.7
2018-01-21T03:30:04.963Z,4.8
2018-01-21T03:31:07.667Z,4.7
2018-01-21T03:32:10.063Z,4.7
2018-01-21T03:33:12.477Z,4.8
2018-01-21T03:34:14.873Z,4.7
2018-01-21T03:35:17.286Z,4.6
2018-01-21T03:36:19.698Z,4.6
2018-01-21T03:37:22.113Z,4.6
2018-01-21T03:38:24.520Z,4.8
2018-01-21T03:39:26.935Z,4.7
2018-01-21T03:40:29.338Z,4.8
2018-01-21T03:41:31.751Z,4.7
2018-01-21T03:42:34.218Z,4.7
2018-01-21T03:43:36.618Z,4.6
2018-01-21T03:44:39.024Z,4.6
2018-01-21T03:45:41.719Z,4.6
2018-01-21T03:46:44.126Z,4.7
2018-01-21T03:47:46.528Z,4.8
2018-01-21T03:48:48.936Z,4.7
2018-01-21T03:49:51.340Z,4.6
2018-01-21T03:50:53.747Z,4.7
2018-01-21T03:51:56.168Z,4.6
2018-01-21T03:52:58.847Z,4.6
2018-01-21T03:54:01.260Z,4.6
2018-01-21T03:55:03.672Z,4.7
2018-01-21T03:56:06.077Z,4.6
2018-01-21T03:57:08.486Z,4.8
2018-01-21T03:58:10.894Z,4.7
2018-01-21T03:59:13.297Z,4.6
2018-01-21T04:00:15.699Z,4.8
2018-01-21T04:01:18.104Z,4.6
2018-01-21T04:02:20.519Z,4.7
2018-01-21T04:03:22.928Z,4.6
2018-01-21T04:04:25.629Z,4.8
2018-01-21T04:05:28.035Z,4.7
2018-01-21T04:06:30.450Z,4.7
2018-01-21T04:07:32.874Z,4.7
2018-01-21T04:08:35.558Z,4.7
2018-01-21T04:09:37.964Z,4.6
2018-01-21T04:10:40.368Z,4.6
2018-01-21T04:11:43.061Z,4.6
2018-01-21T04:12:45.464Z,4.6
2018-01-21T04:13:47.880Z,4.6
2018-01-21T04:14:50.282Z,4.6
2018-01-21T04:15:52.692Z,4.6
2018-01-21T04:16:55.118Z,4.6
2018-01-21T04:17:57.513Z,4.6
2018-01-21T04:19:00.211Z,4.7
2018-01-21T04:20:02.621Z,4.7
2018-01-21T04:21:05.321Z,4.6
2018-01-21T04:22:07.729Z,4.5
2018-01-21T04:23:10.145Z,4.6
2018-01-21T04:24:12.823Z,4.6
2018-01-21T04:25:15.234Z,4.7
2018-01-21T04:26:17.645Z,4.7
2018-01-21T04:27:20.047Z,4.6
2018-01-21T04:28:22.451Z,4.7
2018-01-21T04:29:24.863Z,4.5
2018-01-21T04:30:27.264Z,4.6
2018-01-21T04:31:29.677Z,4.6
2018-01-21T04:32:32.093Z,4.6
2018-01-21T04:33:34.493Z,4.6
2018-01-21T04:34:36.908Z,4.7
2018-01-21T04:35:39.309Z,4.8
2018-01-21T04:36:42.003Z,4.7
2018-01-21T04:37:44.415Z,4.7
2018-01-21T04:38:47.114Z,4.7
2018-01-21T04:39:49.513Z,4.6
2018-01-21T04:40:51.932Z,4.6
2018-01-21T04:41:54.336Z,4.6
2018-01-21T04:42:56.741Z,4.6
2018-01-21T04:43:59.157Z,4.6
2018-01-21T04:45:01.563Z,4.6
2018-01-21T04:46:03.976Z,4.7
2018-01-21T04:47:06.385Z,4.6
2018-01-21T04:48:08.789Z,4.6
2018-01-21T04:49:11.204Z,4.6
2018-01-21T04:50:13.615Z,4.6
2018-01-21T04:51:16.015Z,4.6
2018-01-21T04:52:18.418Z,4.7
2018-01-21T04:53:20.831Z,4.7
2018-01-21T04:54:23.244Z,4.7
2018-01-21T04:55:25.642Z,4.7
2018-01-21T04:56:28.044Z,4.7
2018-01-21T04:57:30.463Z,4.6
2018-01-21T04:58:32.863Z,4.6
2018-01-21T04:59:35.270Z,4.6
2018-01-21T05:00:37.680Z,4.8
2018-01-21T05:01:40.086Z,4.6
2018-01-21T05:02:42.502Z,4.7
2018-01-21T05:03:44.914Z,4.6
2018-01-21T05:04:47.305Z,4.7
2018-01-21T05:05:49.718Z,4.6
2018-01-21T05:06:52.130Z,4.6
2018-01-21T05:07:54.535Z,4.6
2018-01-21T05:08:56.949Z,4.7
2018-01-21T05:09:59.358Z,4.7
2018-01-21T05:11:01.759Z,4.7
2018-01-21T05:12:04.166Z,4.6
2018-01-21T05:13:06.910Z,4.6
2018-01-21T05:14:09.271Z,4.6
2018-01-21T05:15:11.680Z,4.6
2018-01-21T05:16:14.103Z,4.6
2018-01-21T05:17:16.787Z,4.8
2018-01-21T05:18:19.203Z,4.8
2018-01-21T05:19:21.602Z,4.7
2018-01-21T05:20:24.010Z,4.6
2018-01-21T05:21:26.417Z,4.6
2018-01-21T05:22:28.826Z,4.6
2018-01-21T05:23:31.227Z,4.6
2018-01-21T05:24:33.640Z,4.6
2018-01-21T05:25:36.052Z,4.6
2018-01-21T05:26:38.743Z,4.6
2018-01-21T05:27:41.154Z,4.7
2018-01-21T05:28:43.555Z,4.7
2018-01-21T05:29:45.968Z,4.7
2018-01-21T05:30:48.671Z,4.6
2018-01-21T05:31:51.355Z,4.6
2018-01-21T05:32:53.763Z,4.6
2018-01-21T05:33:56.166Z,4.6
2018-01-21T05:34:58.567Z,4.6
2018-01-21T05:36:00.981Z,4.6
2018-01-21T05:37:03.387Z,4.7
2018-01-21T05:38:05.791Z,4.6
2018-01-21T05:39:08.200Z,4.7
2018-01-21T05:40:10.903Z,4.6
2018-01-21T05:41:13.577Z,4.5
2018-01-21T05:42:15.992Z,4.7
2018-01-21T05:43:18.403Z,4.6
2018-01-21T05:44:21.100Z,4.6
2018-01-21T05:45:23.501Z,4.6
2018-01-21T05:46:26.194Z,4.6
2018-01-21T05:47:28.604Z,4.6
2018-01-21T05:48:31.013Z,4.7
2018-01-21T05:49:33.419Z,4.7
2018-01-21T05:50:35.836Z,4.7
2018-01-21T05:51:38.240Z,4.7
2018-01-21T05:52:40.653Z,4.7
2018-01-21T05:53:43.057Z,4.6
2018-01-21T05:54:45.483Z,4.5
2018-01-21T05:55:47.885Z,4.6
2018-01-21T05:56:50.286Z,4.6
2018-01-21T05:57:53.007Z,4.7
2018-01-21T05:58:55.694Z,4.7
2018-01-21T05:59:58.385Z,4.7
2018-01-21T06:01:00.791Z,4.7
2018-01-21T06:02:03.193Z,4.8
2018-01-21T06:03:05.883Z,4.6
2018-01-21T06:04:08.292Z,4.7
2018-01-21T06:05:10.986Z,4.6
2018-01-21T06:06:13.395Z,4.6
2018-01-21T06:07:15.808Z,4.6
2018-01-21T06:08:18.214Z,4.7
2018-01-21T06:09:20.630Z,4.8
2018-01-21T06:10:23.035Z,4.6
2018-01-21T06:11:25.452Z,4.7
2018-01-21T06:12:27.860Z,4.7
2018-01-21T06:13:30.270Z,4.8
2018-01-21T06:14:32.671Z,4.6
2018-01-21T06:15:35.074Z,4.6
2018-01-21T06:16:37.482Z,4.6
2018-01-21T06:17:39.887Z,4.7
2018-01-21T06:18:42.293Z,4.7
2018-01-21T06:19:44.704Z,4.7
2018-01-21T06:20:47.103Z,4.8
2018-01-21T06:21:49.518Z,4.7
2018-01-21T06:22:51.944Z,4.6
2018-01-21T06:23:54.625Z,4.6
2018-01-21T06:24:57.030Z,4.6
2018-01-21T06:25:59.739Z,4.6
2018-01-21T06:27:02.144Z,4.7
2018-01-21T06:28:04.549Z,4.7
2018-01-21T06:29:06.955Z,4.6
2018-01-21T06:30:09.368Z,4.7
2018-01-21T06:31:11.773Z,4.7
2018-01-21T06:32:14.186Z,4.6
2018-01-21T06:33:16.595Z,4.6
2018-01-21T06:34:19.292Z,4.6
2018-01-21T06:35:21.699Z,4.6
2018-01-21T06:36:24.115Z,4.8
2018-01-21T06:37:26.513Z,4.7
2018-01-21T06:38:28.932Z,4.8
2018-01-21T06:39:31.330Z,4.6
2018-01-21T06:40:33.740Z,4.7
2018-01-21T06:41:36.156Z,4.7
2018-01-21T06:42:38.559Z,4.7
2018-01-21T06:43:41.253Z,4.6
2018-01-21T06:44:43.667Z,4.6
2018-01-21T06:45:46.060Z,4.7
2018-01-21T06:46:48.772Z,4.6
2018-01-21T06:47:51.179Z,4.7
2018-01-21T06:48:53.582Z,4.7
2018-01-21T06:49:55.992Z,4.6
2018-01-21T06:50:58.406Z,4.6
2018-01-21T06:52:01.103Z,4.6
2018-01-21T06:53:03.523Z,4.7
2018-01-21T06:54:06.226Z,4.6
2018-01-21T06:55:08.632Z,4.6
2018-01-21T06:56:11.040Z,4.7
2018-01-21T06:57:13.445Z,4.8
2018-01-21T06:58:15.862Z,4.7
2018-01-21T06:59:18.277Z,4.8
2018-01-21T07:00:20.687Z,4.7
2018-01-21T07:01:23.089Z,4.7
2018-01-21T07:02:25.507Z,4.6
2018-01-21T07:03:28.203Z,4.6
2018-01-21T07:04:30.617Z,4.8
2018-01-21T07:05:33.013Z,4.8
2018-01-21T07:06:35.420Z,4.6
2018-01-21T07:07:37.821Z,4.7
2018-01-21T07:08:40.236Z,4.7
2018-01-21T07:09:42.655Z,4.7
2018-01-21T07:10:45.336Z,4.6
2018-01-21T07:11:47.735Z,4.6
2018-01-21T07:12:50.151Z,4.6
2018-01-21T07:13:52.556Z,4.6
2018-01-21T07:14:54.957Z,4.7
2018-01-21T07:15:57.367Z,4.8
2018-01-21T07:16:59.770Z,4.7
2018-01-21T07:18:02.470Z,4.8
2018-01-21T07:19:04.885Z,4.6
2018-01-21T07:20:07.276Z,4.7
2018-01-21T07:21:09.975Z,4.7
2018-01-21T07:22:12.379Z,4.7
2018-01-21T07:23:14.787Z,4.7
2018-01-21T07:24:17.492Z,4.7
2018-01-21T07:25:19.897Z,4.8
2018-01-21T07:26:22.308Z,4.8
2018-01-21T07:27:24.717Z,4.7
2018-01-21T07:28:27.137Z,4.8
2018-01-21T07:29:29.535Z,4.6
2018-01-21T07:30:31.951Z,4.7
2018-01-21T07:31:34.362Z,4.6
2018-01-21T07:32:36.767Z,4.6
2018-01-21T07:33:39.456Z,4.7
2018-01-21T07:34:41.861Z,4.7
2018-01-21T07:35:44.260Z,4.7
2018-01-21T07:36:46.686Z,4.7
2018-01-21T07:37:49.378Z,4.7
2018-01-21T07:38:51.781Z,4.7
2018-01-21T07:39:54.477Z,4.7
2018-01-21T07:40:56.887Z,4.7
2018-01-21T07:41:59.598Z,4.7
2018-01-21T07:43:02.010Z,4.6
2018-01-21T07:44:04.414Z,4.7
2018-01-21T07:45:06.831Z,4.7
2018-01-21T07:46:09.515Z,4.7
2018-01-21T07:47:12.209Z,4.8
2018-01-21T07:48:14.623Z,4.8
2018-01-21T07:49:17.029Z,4.7
2018-01-21T07:50:19.436Z,4.7
2018-01-21T07:51:21.845Z,4.7
2018-01-21T07:52:24.247Z,4.7
2018-01-21T07:53:26.653Z,4.6
2018-01-21T07:54:29.066Z,4.7
2018-01-21T07:55:31.760Z,4.7
2018-01-21T07:56:34.169Z,4.9
2018-01-21T07:57:36.863Z,4.8
2018-01-21T07:58:39.270Z,4.7
2018-01-21T07:59:41.961Z,4.7
2018-01-21T08:00:44.662Z,4.8
2018-01-21T08:01:47.070Z,4.8
2018-01-21T08:02:49.467Z,4.7
2018-01-21T08:03:51.882Z,4.6
2018-01-21T08:04:54.579Z,4.7
2018-01-21T08:05:56.995Z,4.6
2018-01-21T08:06:59.406Z,4.7
2018-01-21T08:08:01.803Z,4.7
2018-01-21T08:09:04.221Z,4.8
2018-01-21T08:10:06.638Z,4.8
2018-01-21T08:11:09.046Z,4.7
2018-01-21T08:12:11.747Z,4.8
2018-01-21T08:13:14.438Z,4.8
2018-01-21T08:14:16.845Z,4.7
2018-01-21T08:15:19.272Z,4.7
2018-01-21T08:16:21.686Z,4.7
2018-01-21T08:17:24.375Z,4.7
2018-01-21T08:18:27.303Z,4.9
2018-01-21T08:19:30.912Z,4.7
2018-01-21T08:20:33.400Z,4.7
2018-01-21T08:21:35.966Z,4.6
2018-01-21T08:22:38.451Z,4.6
2018-01-21T08:23:41.309Z,4.9
2018-01-21T08:24:43.917Z,4.8
2018-01-21T08:25:46.539Z,4.8
2018-01-21T08:26:49.101Z,4.7
2018-01-21T08:27:51.707Z,4.7
2018-01-21T08:28:54.299Z,4.7
2018-01-21T08:29:56.707Z,4.7
2018-01-21T08:30:59.108Z,4.8
2018-01-21T08:32:01.520Z,4.8
2018-01-21T08:33:03.933Z,4.7
2018-01-21T08:34:06.893Z,4.7
2018-01-21T08:35:09.311Z,4.7
2018-01-21T08:36:11.731Z,4.6
2018-01-21T08:37:14.136Z,4.8
2018-01-21T08:38:16.546Z,4.8
2018-01-21T08:39:18.954Z,4.7
2018-01-21T08:40:21.361Z,4.6
2018-01-21T08:41:23.788Z,4.8
2018-01-21T08:42:26.192Z,4.6
2018-01-21T08:43:28.598Z,4.8
2018-01-21T08:44:31.297Z,4.8
2018-01-21T08:45:34.008Z,4.9
2018-01-21T08:46:36.410Z,4.9
2018-01-21T08:47:38.824Z,4.8
2018-01-21T08:48:41.224Z,4.9
2018-01-21T08:49:43.631Z,4.9
2018-01-21T08:50:46.054Z,4.9
2018-01-21T08:51:48.461Z,5
2018-01-21T08:52:50.861Z,4.8
2018-01-21T08:53:53.277Z,4.8
2018-01-21T08:54:55.694Z,4.8
2018-01-21T08:55:58.381Z,5
2018-01-21T08:57:00.784Z,4.9
2018-01-21T08:58:03.199Z,5
2018-01-21T08:59:05.600Z,4.8
2018-01-21T09:00:08.036Z,4.8
2018-01-21T09:01:10.433Z,4.9
2018-01-21T09:02:12.851Z,4.8
2018-01-21T09:03:15.260Z,4.8
2018-01-21T09:04:17.675Z,5
2018-01-21T09:05:20.083Z,4.9
2018-01-21T09:06:22.497Z,5.1
2018-01-21T09:07:24.896Z,4.9
2018-01-21T09:08:27.314Z,4.9
2018-01-21T09:09:30.012Z,4.8
2018-01-21T09:10:32.708Z,4.8
2018-01-21T09:11:35.114Z,4.8
2018-01-21T09:12:37.531Z,4.8
2018-01-21T09:13:39.935Z,4.8
2018-01-21T09:14:42.350Z,5
2018-01-21T09:15:44.750Z,5
2018-01-21T09:16:47.507Z,5
2018-01-21T09:17:49.871Z,4.8
2018-01-21T09:18:52.576Z,4.9
2018-01-21T09:19:54.986Z,4.8
2018-01-21T09:20:57.672Z,4.8
2018-01-21T09:22:00.083Z,4.8
2018-01-21T09:23:02.510Z,4.8
2018-01-21T09:24:04.903Z,4.7
2018-01-21T09:25:07.328Z,4.8
2018-01-21T09:26:10.025Z,4.8
2018-01-21T09:27:12.426Z,4.9
2018-01-21T09:28:14.830Z,4.8
2018-01-21T09:29:17.246Z,4.9
2018-01-21T09:30:19.853Z,4.8
2018-01-21T09:31:22.560Z,4.8
2018-01-21T09:32:24.965Z,4.7
2018-01-21T09:33:27.370Z,4.7
2018-01-21T09:34:29.785Z,4.8
2018-01-21T09:35:32.188Z,4.7
2018-01-21T09:36:34.599Z,4.8
2018-01-21T09:37:37.016Z,4.7
2018-01-21T09:38:39.426Z,4.7
2018-01-21T09:39:41.829Z,4.8
2018-01-21T09:40:44.252Z,4.8
2018-01-21T09:41:46.941Z,4.7
2018-01-21T09:42:49.341Z,4.8
2018-01-21T09:43:51.758Z,4.9
2018-01-21T09:44:54.163Z,4.8
2018-01-21T09:45:56.585Z,4.8
2018-01-21T09:46:59.004Z,4.7
2018-01-21T09:48:01.412Z,4.8
2018-01-21T09:49:03.832Z,4.8
2018-01-21T09:50:06.255Z,4.7
2018-01-21T09:51:08.949Z,4.7
2018-01-21T09:52:11.355Z,4.8
2018-01-21T09:53:13.770Z,4.8
2018-01-21T09:54:16.182Z,4.8
2018-01-21T09:55:18.583Z,4.7
2018-01-21T09:56:21.276Z,4.8
2018-01-21T09:57:23.698Z,4.7
2018-01-21T09:58:26.099Z,4.8
2018-01-21T09:59:28.511Z,4.9
2018-01-21T10:00:30.931Z,4.8
2018-01-21T10:01:33.350Z,4.8
2018-01-21T10:02:35.764Z,4.9
2018-01-21T10:03:38.178Z,4.8
2018-01-21T10:04:40.578Z,4.8
2018-01-21T10:05:43.005Z,4.8
2018-01-21T10:06:45.403Z,4.7
2018-01-21T10:07:47.827Z,4.7
2018-01-21T10:08:50.241Z,4.8
2018-01-21T10:09:52.660Z,4.8
2018-01-21T10:10:55.350Z,4.8
2018-01-21T10:11:58.054Z,4.8
2018-01-21T10:13:00.466Z,4.7
2018-01-21T10:14:03.174Z,4.7
2018-01-21T10:15:05.585Z,4.8
2018-01-21T10:16:08.000Z,4.8
2018-01-21T10:17:11.265Z,4.8
2018-01-21T10:18:13.692Z,4.7
2018-01-21T10:19:16.098Z,4.8
2018-01-21T10:20:18.506Z,4.8
2018-01-21T10:21:21.202Z,4.9
2018-01-21T10:22:23.893Z,4.9
2018-01-21T10:23:26.303Z,5
2018-01-21T10:24:28.713Z,4.9
2018-01-21T10:25:31.131Z,4.8
2018-01-21T10:26:33.836Z,4.8
2018-01-21T10:27:36.253Z,4.8
2018-01-21T10:28:38.693Z,4.8
2018-01-21T10:29:41.068Z,4.8
2018-01-21T10:30:43.494Z,4.8
2018-01-21T10:31:46.183Z,4.7
2018-01-21T10:32:48.595Z,4.8
2018-01-21T10:33:50.998Z,4.7
2018-01-21T10:34:53.419Z,4.9
2018-01-21T10:35:55.859Z,4.9
2018-01-21T10:36:58.534Z,4.8
2018-01-21T10:38:00.937Z,4.8
2018-01-21T10:39:03.348Z,4.8
2018-01-21T10:40:05.768Z,4.8
2018-01-21T10:41:08.181Z,4.8
2018-01-21T10:42:10.867Z,4.9
2018-01-21T10:43:13.280Z,4.9
2018-01-21T10:44:15.701Z,4.8
2018-01-21T10:45:18.122Z,4.8
2018-01-21T10:46:20.530Z,4.9
2018-01-21T10:47:22.963Z,4.8
2018-01-21T10:48:25.916Z,4.8
2018-01-21T10:49:28.345Z,4.8
2018-01-21T10:50:31.039Z,4.7
2018-01-21T10:51:33.449Z,4.8
2018-01-21T10:52:36.147Z,4.8
2018-01-21T10:53:38.556Z,4.9
2018-01-21T10:54:40.971Z,4.9
2018-01-21T10:55:43.399Z,4.8
2018-01-21T10:56:46.091Z,4.8
2018-01-21T10:57:48.507Z,4.8
2018-01-21T10:58:50.915Z,4.7
2018-01-21T10:59:53.326Z,4.8
2018-01-21T11:00:55.740Z,4.8
2018-01-21T11:01:58.155Z,4.7
2018-01-21T11:03:00.557Z,4.8
2018-01-21T11:04:02.975Z,4.8
2018-01-21T11:05:05.399Z,4.8
2018-01-21T11:06:07.801Z,4.8
2018-01-21T11:07:10.222Z,4.8
2018-01-21T11:08:12.627Z,4.9
2018-01-21T11:09:15.043Z,4.8
2018-01-21T11:10:17.450Z,4.8
2018-01-21T11:11:19.866Z,4.9
2018-01-21T11:12:22.280Z,4.8
2018-01-21T11:13:24.703Z,4.9
2018-01-21T11:14:27.105Z,5
2018-01-21T11:15:29.512Z,4.9
2018-01-21T11:16:31.930Z,4.9
2018-01-21T11:17:34.338Z,4.9
2018-01-21T11:18:36.753Z,4.8
2018-01-21T11:19:39.165Z,4.8
2018-01-21T11:20:41.568Z,4.8
2018-01-21T11:21:43.985Z,4.9
2018-01-21T11:22:46.396Z,4.9
2018-01-21T11:23:48.813Z,5
2018-01-21T11:24:51.219Z,4.9
2018-01-21T11:25:53.938Z,4.8
2018-01-21T11:26:56.353Z,4.9
2018-01-21T11:27:58.767Z,4.8
2018-01-21T11:29:01.174Z,4.8
2018-01-21T11:30:03.597Z,4.8
2018-01-21T11:31:06.008Z,4.8
2018-01-21T11:32:08.427Z,4.9
2018-01-21T11:33:10.842Z,5.1
2018-01-21T11:34:13.552Z,4.8
2018-01-21T11:35:15.971Z,4.9
2018-01-21T11:36:18.392Z,4.8
2018-01-21T11:37:20.806Z,4.8
2018-01-21T11:38:23.234Z,4.9
2018-01-21T11:39:25.638Z,4.9
2018-01-21T11:40:28.060Z,4.9
2018-01-21T11:41:30.481Z,5
2018-01-21T11:42:32.890Z,5
2018-01-21T11:43:35.309Z,4.9
2018-01-21T11:44:38.008Z,4.8
2018-01-21T11:45:40.411Z,4.8
2018-01-21T11:46:42.841Z,4.8
2018-01-21T11:47:45.533Z,5.1
2018-01-21T11:48:47.943Z,4.9
2018-01-21T11:49:50.359Z,4.9
2018-01-21T11:50:53.068Z,4.9
2018-01-21T11:51:55.471Z,4.9
2018-01-21T11:52:57.884Z,4.8
2018-01-21T11:54:00.312Z,4.9
2018-01-21T11:55:02.721Z,4.9
2018-01-21T11:56:05.134Z,4.9
2018-01-21T11:57:07.544Z,4.9
2018-01-21T11:58:09.953Z,4.9
2018-01-21T11:59:12.372Z,4.9
2018-01-21T12:00:14.785Z,4.9
2018-01-21T12:01:17.198Z,4.9
2018-01-21T12:02:19.894Z,4.8
2018-01-21T12:03:22.320Z,4.8
2018-01-21T12:04:24.731Z,4.8
2018-01-21T12:05:27.150Z,4.9
2018-01-21T12:06:29.564Z,4.9
2018-01-21T12:07:31.984Z,4.9
2018-01-21T12:08:34.681Z,5
2018-01-21T12:09:37.101Z,4.8
2018-01-21T12:10:39.505Z,4.8
2018-01-21T12:11:41.924Z,4.8
2018-01-21T12:12:44.342Z,4.8
2018-01-21T12:13:46.751Z,4.9
2018-01-21T12:14:49.158Z,4.9
2018-01-21T12:15:51.575Z,4.9
2018-01-21T12:16:53.981Z,4.9
2018-01-21T12:17:56.412Z,4.8
2018-01-21T12:18:59.112Z,4.8
2018-01-21T12:20:01.521Z,4.8
2018-01-21T12:21:03.939Z,5
2018-01-21T12:22:06.349Z,5
2018-01-21T12:23:08.765Z,4.9
2018-01-21T12:24:11.177Z,4.9
2018-01-21T12:25:13.587Z,4.9
2018-01-21T12:26:15.999Z,4.9
2018-01-21T12:27:18.419Z,4.8
2018-01-21T12:28:20.827Z,4.8
2018-01-21T12:29:23.744Z,4.9
2018-01-21T12:30:26.320Z,5
2018-01-21T12:31:28.752Z,5
2018-01-21T12:32:31.148Z,4.9
2018-01-21T12:33:33.567Z,4.9
2018-01-21T12:34:35.976Z,4.9
2018-01-21T12:35:38.396Z,4.9
2018-01-21T12:36:40.818Z,4.9
2018-01-21T12:37:43.229Z,4.8
2018-01-21T12:38:45.638Z,5
2018-01-21T12:39:48.055Z,5.2
2018-01-21T12:40:50.465Z,5.1
2018-01-21T12:41:53.334Z,5
2018-01-21T12:42:55.761Z,4.9
2018-01-21T12:43:58.159Z,5
2018-01-21T12:45:00.579Z,4.9
2018-01-21T12:46:03.003Z,4.9
2018-01-21T12:47:05.411Z,5
2018-01-21T12:48:08.108Z,5
2018-01-21T12:49:10.529Z,4.9
2018-01-21T12:50:13.299Z,4.8
2018-01-21T12:51:15.993Z,5
2018-01-21T12:52:18.411Z,5
2018-01-21T12:53:20.826Z,4.9
2018-01-21T12:54:23.517Z,4.8
2018-01-21T12:55:26.222Z,4.9
2018-01-21T12:56:28.636Z,4.8
2018-01-21T12:57:31.046Z,4.8
2018-01-21T12:58:33.470Z,5.1
2018-01-21T12:59:35.887Z,4.9
2018-01-21T13:00:38.301Z,4.8
2018-01-21T13:01:40.709Z,4.9
2018-01-21T13:02:43.125Z,4.9
2018-01-21T13:03:45.532Z,4.9
2018-01-21T13:04:47.950Z,4.8
2018-01-21T13:05:50.358Z,5
2018-01-21T13:06:52.769Z,5
2018-01-21T13:07:55.177Z,4.8
2018-01-21T13:08:57.592Z,4.8
2018-01-21T13:09:59.997Z,4.8
2018-01-21T13:11:02.423Z,4.9
2018-01-21T13:12:04.830Z,4.9
2018-01-21T13:13:07.243Z,4.9
2018-01-21T13:14:09.663Z,4.9
2018-01-21T13:15:12.077Z,4.9
2018-01-21T13:16:14.491Z,5
2018-01-21T13:17:16.919Z,4.9
2018-01-21T13:18:19.316Z,4.8
2018-01-21T13:19:21.742Z,5
2018-01-21T13:20:24.149Z,5
2018-01-21T13:21:26.555Z,5.3
2018-01-21T13:22:28.977Z,5
2018-01-21T13:23:31.398Z,5.1
2018-01-21T13:24:33.807Z,4.9
2018-01-21T13:25:36.238Z,4.9
2018-01-21T13:26:38.638Z,4.9
2018-01-21T13:27:41.351Z,4.9
2018-01-21T13:28:43.760Z,5
2018-01-21T13:29:46.175Z,5
2018-01-21T13:30:48.584Z,5
2018-01-21T13:31:51.000Z,4.9
2018-01-21T13:32:53.725Z,4.9
2018-01-21T13:33:56.112Z,4.9
2018-01-21T13:34:58.803Z,4.9
2018-01-21T13:36:01.222Z,4.9
2018-01-21T13:37:03.635Z,5
2018-01-21T13:38:06.055Z,5
2018-01-21T13:39:08.468Z,5
2018-01-21T13:40:11.169Z,4.9
2018-01-21T13:41:13.589Z,5
2018-01-21T13:42:16.301Z,4.9
2018-01-21T13:43:18.997Z,4.9
2018-01-21T13:44:21.419Z,4.9
2018-01-21T13:45:23.832Z,5
2018-01-21T13:46:26.247Z,4.9
2018-01-21T13:47:28.661Z,4.9
2018-01-21T13:48:31.082Z,5
2018-01-21T13:49:33.487Z,4.9
2018-01-21T13:50:36.198Z,4.9
2018-01-21T13:51:38.619Z,4.9
2018-01-21T13:52:41.025Z,4.9
2018-01-21T13:53:43.452Z,4.9
2018-01-21T13:54:45.866Z,5
2018-01-21T13:55:48.276Z,4.9
2018-01-21T13:56:50.698Z,5
2018-01-21T13:57:53.099Z,4.9
2018-01-21T13:58:55.793Z,4.9
2018-01-21T13:59:58.229Z,4.9
2018-01-21T14:01:01.211Z,4.9
2018-01-21T14:02:03.621Z,5
2018-01-21T14:03:06.032Z,5
2018-01-21T14:04:08.438Z,5
2018-01-21T14:05:10.862Z,4.9
2018-01-21T14:06:13.272Z,5
2018-01-21T14:07:15.680Z,4.9
2018-01-21T14:08:18.104Z,4.8
2018-01-21T14:09:20.805Z,4.9
2018-01-21T14:10:23.229Z,4.8
2018-01-21T14:11:25.650Z,5
2018-01-21T14:12:28.061Z,4.9
2018-01-21T14:13:30.482Z,4.9
2018-01-21T14:14:32.901Z,4.9
2018-01-21T14:15:35.318Z,4.9
2018-01-21T14:16:37.728Z,4.9
2018-01-21T14:17:40.744Z,5
2018-01-21T14:18:43.141Z,5
2018-01-21T14:19:45.556Z,5
2018-01-21T14:20:47.977Z,4.9
2018-01-21T14:21:50.389Z,5
2018-01-21T14:22:53.087Z,4.9
2018-01-21T14:23:55.505Z,4.8